Time;durP1;ratioP1;P1;durP2;ratioP2;P2;SDS_P1;SDS_P2;PMS_P1;PMS_P2;Temp;Humidity;BMP_temperature;BMP_pressure;BME280_temperature;BME280_humidity;BME280_pressure;Samples;Min_cycle;Max_cycle;Signal;HPM_P1;HPM_P2
2022/05/08 00:01:35;;;;;;;16.90;6.93;;;13.30;99.90;;;;;;4935013;29;20208;-72
2022/05/08 00:04:03;;;;;;;17.57;7.10;;;13.20;99.90;;;;;;4935790;29;20208;-72
2022/05/08 00:06:30;;;;;;;16.17;7.23;;;13.20;99.90;;;;;;4939147;29;20205;-71
2022/05/08 00:08:58;;;;;;;16.00;7.37;;;13.20;99.90;;;;;;4938523;29;20227;-71
2022/05/08 00:11:25;;;;;;;16.43;6.47;;;13.20;99.90;;;;;;4939144;29;20213;-71
2022/05/08 00:13:51;;;;;;;16.13;7.53;;;13.30;99.90;;;;;;4938467;29;20210;-71
2022/05/08 00:16:18;;;;;;;16.90;7.57;;;13.30;99.90;;;;;;4938402;29;20208;-71
2022/05/08 00:18:45;;;;;;;12.13;5.37;;;13.20;99.90;;;;;;4938501;29;20236;-71
2022/05/08 00:21:13;;;;;;;17.70;6.77;;;13.20;99.90;;;;;;4939536;29;20216;-71
2022/05/08 00:23:40;;;;;;;16.07;7.07;;;13.20;99.90;;;;;;4938514;29;20212;-71
2022/05/08 00:26:08;;;;;;;11.03;5.47;;;13.20;99.90;;;;;;4938786;29;20205;-71
2022/05/08 00:28:35;;;;;;;15.67;6.70;;;13.20;99.90;;;;;;4939125;29;20212;-71
2022/05/08 00:31:02;;;;;;;12.30;5.93;;;13.20;99.90;;;;;;4939451;29;20212;-71
2022/05/08 00:33:29;;;;;;;13.43;5.80;;;13.20;99.90;;;;;;4939059;29;20205;-71
2022/05/08 00:35:55;;;;;;;12.13;5.70;;;13.20;99.90;;;;;;4938874;29;20219;-71
2022/05/08 00:38:24;;;;;;;12.47;5.40;;;13.20;99.90;;;;;;4938129;29;20232;-71
2022/05/08 00:40:50;;;;;;;10.20;4.90;;;13.20;99.90;;;;;;4938553;29;20235;-72
2022/05/08 00:43:28;;;;;;;9.77;4.77;;;13.20;99.90;;;;;;4937817;29;20215;-71
2022/05/08 00:45:55;;;;;;;11.77;5.00;;;13.20;99.90;;;;;;4938157;29;20208;-71
2022/05/08 00:48:22;;;;;;;8.93;4.70;;;13.20;99.90;;;;;;4938875;29;20205;-71
2022/05/08 00:50:50;;;;;;;12.90;4.53;;;13.20;99.90;;;;;;4941093;29;20229;-71
2022/05/08 00:53:17;;;;;;;8.97;4.60;;;13.20;99.90;;;;;;4939006;29;20591;-71
2022/05/08 00:55:46;;;;;;;8.43;4.17;;;13.20;99.90;;;;;;4938298;29;20209;-71
2022/05/08 00:58:13;;;;;;;8.73;5.23;;;13.20;99.90;;;;;;4938600;29;20229;-71
2022/05/08 01:00:40;;;;;;;9.57;4.70;;;13.20;99.90;;;;;;4938022;29;20229;-71
2022/05/08 01:03:07;;;;;;;9.53;4.83;;;13.40;99.90;;;;;;4938182;29;20668;-71
2022/05/08 01:05:39;;;;;;;8.87;4.10;;;13.50;99.90;;;;;;4938586;29;20213;-71
2022/05/08 01:08:06;;;;;;;9.53;4.60;;;13.60;99.90;;;;;;4938118;29;20549;-71
2022/05/08 01:10:33;;;;;;;10.63;4.63;;;13.60;99.90;;;;;;4937442;29;20233;-71
2022/05/08 01:13:01;;;;;;;9.53;4.37;;;13.50;99.90;;;;;;4938132;29;20208;-71
2022/05/08 01:15:28;;;;;;;9.03;4.33;;;13.30;99.90;;;;;;4937110;29;20209;-71
2022/05/08 01:17:55;;;;;;;7.47;4.00;;;13.10;99.90;;;;;;4937568;29;20564;-71
2022/05/08 01:20:22;;;;;;;10.37;4.80;;;13.10;99.90;;;;;;4938007;29;20236;-71
2022/05/08 01:22:51;;;;;;;9.90;4.83;;;13.10;99.90;;;;;;4937959;29;20294;-72
2022/05/08 01:25:17;;;;;;;7.10;3.97;;;13.10;99.90;;;;;;4936871;29;20209;-70
2022/05/08 01:27:45;;;;;;;8.83;4.13;;;13.10;99.90;;;;;;4937928;29;20205;-71
2022/05/08 01:30:12;;;;;;;7.53;4.03;;;13.00;99.90;;;;;;4936666;29;20266;-70
2022/05/08 01:32:38;;;;;;;7.50;4.07;;;13.10;99.90;;;;;;4937604;29;20209;-71
2022/05/08 01:35:06;;;;;;;7.00;3.97;;;12.90;99.90;;;;;;4937939;29;20209;-70
2022/05/08 01:37:33;;;;;;;8.00;3.70;;;12.80;99.90;;;;;;4937551;29;20603;-71
2022/05/08 01:40:01;;;;;;;6.13;3.33;;;12.90;99.90;;;;;;4937096;28;20240;-70
2022/05/08 01:42:28;;;;;;;4.97;3.07;;;12.90;99.90;;;;;;4937719;29;20205;-71
2022/05/08 01:44:55;;;;;;;7.03;3.40;;;13.00;99.90;;;;;;4937294;29;20260;-71
2022/05/08 01:50:07;;;;;;;8.13;3.50;;;13.10;99.90;;;;;;4936924;29;20243;-72
2022/05/08 01:52:34;;;;;;;5.77;4.07;;;13.10;99.90;;;;;;4936665;29;20217;-70
2022/05/08 01:55:03;;;;;;;5.27;2.93;;;13.00;99.90;;;;;;4937333;29;20268;-71
2022/05/08 01:57:30;;;;;;;8.07;3.40;;;12.90;99.90;;;;;;4937235;29;20252;-71
2022/05/08 01:59:56;;;;;;;8.07;3.30;;;12.80;99.90;;;;;;4936595;29;20324;-71
2022/05/08 02:02:23;;;;;;;6.07;3.10;;;12.70;99.90;;;;;;4937038;29;20212;-72
2022/05/08 02:04:50;;;;;;;4.87;3.17;;;12.60;99.90;;;;;;4936800;29;20211;-72
2022/05/08 02:07:17;;;;;;;4.87;2.60;;;12.60;99.90;;;;;;4939780;29;20664;-71
2022/05/08 02:09:45;;;;;;;5.03;3.03;;;12.60;99.90;;;;;;4936211;29;20235;-73
2022/05/08 02:12:14;;;;;;;4.23;2.50;;;12.40;99.90;;;;;;4937048;29;20205;-72
2022/05/08 02:14:43;;;;;;;7.67;2.97;;;12.50;99.90;;;;;;4936921;29;20209;-72
2022/05/08 02:17:10;;;;;;;5.10;2.40;;;12.60;99.90;;;;;;4936673;29;20205;-70
2022/05/08 02:19:37;;;;;;;6.60;2.67;;;12.70;99.90;;;;;;4936799;29;20240;-70
2022/05/08 02:22:04;;;;;;;5.77;3.07;;;12.80;99.90;;;;;;4935692;29;20219;-70
2022/05/08 02:24:31;;;;;;;5.77;2.87;;;12.80;99.90;;;;;;4936726;29;20212;-70
2022/05/08 02:26:57;;;;;;;5.33;3.10;;;13.00;99.90;;;;;;4936261;29;20213;-71
2022/05/08 02:29:25;;;;;;;3.90;2.53;;;13.00;99.90;;;;;;4935632;29;20229;-72
2022/05/08 02:31:52;;;;;;;4.97;2.80;;;12.90;99.90;;;;;;4936658;29;20209;-71
2022/05/08 02:34:19;;;;;;;3.83;2.57;;;12.90;99.90;;;;;;4936411;29;20208;-71
2022/05/08 02:36:46;;;;;;;5.00;2.87;;;12.70;99.90;;;;;;4937076;29;20213;-71
2022/05/08 02:39:13;;;;;;;4.07;2.23;;;12.70;99.90;;;;;;4936197;29;20343;-71
2022/05/08 02:41:40;;;;;;;5.23;2.73;;;12.60;99.90;;;;;;4936559;29;20235;-71
2022/05/08 02:44:07;;;;;;;5.43;2.57;;;12.40;99.90;;;;;;4935892;29;20220;-71
2022/05/08 02:46:35;;;;;;;4.70;2.27;;;12.30;99.90;;;;;;4936659;29;20209;-70
2022/05/08 02:49:02;;;;;;;3.77;2.20;;;12.40;99.90;;;;;;4936145;29;20239;-71
2022/05/08 02:51:28;;;;;;;3.37;2.17;;;12.30;99.90;;;;;;4936127;29;20209;-71
2022/05/08 02:53:55;;;;;;;5.53;2.00;;;12.30;99.90;;;;;;4935879;29;20215;-71
2022/05/08 02:59:06;;;;;;;4.00;2.13;;;12.40;99.90;;;;;;4935494;29;20619;-71
2022/05/08 03:01:34;;;;;;;6.47;2.10;;;12.60;99.90;;;;;;4936452;29;20209;-71
2022/05/08 03:04:01;;;;;;;3.30;2.23;;;12.70;99.90;;;;;;4935132;29;20213;-70
2022/05/08 03:06:28;;;;;;;5.20;2.10;;;12.70;99.90;;;;;;4939326;29;20200;-70
2022/05/08 03:08:55;;;;;;;2.80;1.83;;;12.80;99.90;;;;;;4945866;28;20766;-70
2022/05/08 03:11:29;;;;;;;4.17;2.10;;;12.90;99.90;;;;;;4955201;28;20302;-70
2022/05/08 03:13:57;;;;;;;4.97;2.00;;;12.70;99.90;;;;;;4954979;28;20731;-73
2022/05/08 03:16:26;;;;;;;4.73;1.90;;;12.70;99.90;;;;;;4954980;28;20215;-71
2022/05/08 03:18:55;;;;;;;6.63;2.00;;;12.80;99.90;;;;;;4954988;28;20232;-71
2022/05/08 03:21:22;;;;;;;3.47;2.10;;;12.90;99.90;;;;;;4954491;28;20212;-71
2022/05/08 03:23:49;;;;;;;4.10;2.10;;;12.80;99.90;;;;;;4953843;28;20211;-71
2022/05/08 03:26:19;;;;;;;3.50;1.93;;;12.80;99.90;;;;;;4948567;28;20286;-71
2022/05/08 03:28:46;;;;;;;3.33;1.80;;;12.80;99.90;;;;;;4934991;29;20208;-71
2022/05/08 03:31:13;;;;;;;2.77;2.00;;;12.80;99.90;;;;;;4936043;29;20215;-71
2022/05/08 03:33:40;;;;;;;2.97;2.17;;;12.80;99.90;;;;;;4935745;29;20209;-71
2022/05/08 03:36:10;;;;;;;5.80;2.03;;;12.80;99.90;;;;;;4935637;29;20208;-71
2022/05/08 03:38:41;;;;;;;2.97;1.67;;;12.80;99.90;;;;;;4934340;29;20260;-71
2022/05/08 03:41:08;;;;;;;5.27;1.90;;;12.80;99.90;;;;;;4935313;29;20296;-71
2022/05/08 03:43:36;;;;;;;6.30;2.47;;;12.90;99.90;;;;;;4934103;29;20209;-71
2022/05/08 03:46:03;;;;;;;5.80;2.30;;;13.00;99.90;;;;;;4935467;29;20268;-71
2022/05/08 03:48:30;;;;;;;4.80;2.10;;;13.30;99.90;;;;;;4935549;29;20663;-71
2022/05/08 03:50:56;;;;;;;3.07;2.00;;;13.40;99.90;;;;;;4934713;29;20291;-71
2022/05/08 03:53:25;;;;;;;3.57;2.00;;;13.40;99.90;;;;;;4937851;29;20215;-71
2022/05/08 03:55:51;;;;;;;3.37;2.33;;;13.40;99.90;;;;;;4933851;29;20304;-71
2022/05/08 03:58:18;;;;;;;5.50;1.80;;;13.40;99.90;;;;;;4935672;29;20205;-71
2022/05/08 04:00:45;;;;;;;4.63;2.03;;;13.40;99.90;;;;;;4935047;29;20244;-71
2022/05/08 04:03:12;;;;;;;4.13;2.40;;;13.40;99.90;;;;;;4935437;29;20205;-71
2022/05/08 04:05:39;;;;;;;3.37;1.80;;;13.50;99.90;;;;;;4935085;29;20567;-71
2022/05/08 04:08:06;;;;;;;5.90;1.70;;;13.60;99.90;;;;;;4945757;29;20196;-71
2022/05/08 04:10:35;;;;;;;2.57;1.77;;;13.60;99.90;;;;;;4953110;28;20246;-71
2022/05/08 04:13:01;;;;;;;5.30;2.23;;;13.70;99.90;;;;;;4953280;28;20208;-71
2022/05/08 04:18:12;;;;;;;3.43;2.10;;;13.70;99.90;;;;;;4954446;29;20211;-71
2022/05/08 04:20:40;;;;;;;4.43;2.17;;;13.70;99.90;;;;;;4954019;28;20243;-71
2022/05/08 04:25:53;;;;;;;3.67;2.00;;;13.60;99.90;;;;;;4935721;29;20293;-71
2022/05/08 04:28:20;;;;;;;3.43;2.10;;;13.50;99.90;;;;;;4935074;29;20215;-72
2022/05/08 04:30:48;;;;;;;6.43;2.07;;;13.40;99.90;;;;;;4934624;29;20229;-72
2022/05/08 04:33:15;;;;;;;3.63;1.83;;;13.40;99.90;;;;;;4935537;29;20683;-71
2022/05/08 04:35:42;;;;;;;3.23;2.10;;;13.40;99.90;;;;;;4934989;29;20213;-72
2022/05/08 04:38:11;;;;;;;3.83;2.17;;;13.40;99.90;;;;;;4934864;29;20276;-71
2022/05/08 04:40:38;;;;;;;5.37;1.93;;;13.40;99.90;;;;;;4933388;29;20696;-71
2022/05/08 04:43:06;;;;;;;4.57;2.57;;;13.40;99.90;;;;;;4934262;29;20683;-71
2022/05/08 04:45:33;;;;;;;5.03;2.13;;;13.30;99.90;;;;;;4934677;29;20235;-72
2022/05/08 04:48:00;;;;;;;5.80;2.17;;;13.30;99.90;;;;;;4934230;29;20209;-71
2022/05/08 04:50:27;;;;;;;3.80;2.00;;;13.30;99.90;;;;;;4934514;29;20233;-72
2022/05/08 04:52:54;;;;;;;3.93;1.93;;;13.40;99.90;;;;;;4936521;29;20579;-71
2022/05/08 04:55:20;;;;;;;4.60;1.97;;;13.40;99.90;;;;;;4937466;29;20584;-72
2022/05/08 04:57:47;;;;;;;4.07;1.97;;;13.50;99.90;;;;;;4937712;29;20239;-72
2022/05/08 05:00:16;;;;;;;3.30;1.77;;;13.60;99.90;;;;;;4937441;29;20240;-71
2022/05/08 05:02:44;;;;;;;4.47;2.20;;;13.90;99.90;;;;;;4938083;29;20699;-71
2022/05/08 05:05:11;;;;;;;6.97;2.07;;;14.10;99.90;;;;;;4938661;29;20244;-71
2022/05/08 05:07:39;;;;;;;4.77;2.13;;;14.30;99.90;;;;;;4938245;29;20209;-72
2022/05/08 05:10:07;;;;;;;3.07;2.13;;;14.40;99.90;;;;;;4938100;29;20228;-72
2022/05/08 05:12:34;;;;;;;3.40;1.90;;;14.50;99.90;;;;;;4936676;29;20205;-72
2022/05/08 05:15:01;;;;;;;3.93;1.60;;;14.60;99.90;;;;;;4938031;29;20205;-72
2022/05/08 05:17:29;;;;;;;5.43;2.00;;;14.60;99.90;;;;;;4937900;29;20608;-72
2022/05/08 05:19:56;;;;;;;3.90;2.10;;;15.00;99.90;;;;;;4940046;29;20231;-72
2022/05/08 05:22:23;;;;;;;3.03;2.00;;;14.90;99.90;;;;;;4944601;29;20219;-72
2022/05/08 05:24:50;;;;;;;3.50;2.27;;;15.20;99.90;;;;;;4953531;29;20708;-71
2022/05/08 05:27:17;;;;;;;4.77;2.17;;;15.50;99.90;;;;;;4942803;29;20212;-72
2022/05/08 05:29:44;;;;;;;4.20;2.30;;;15.20;99.90;;;;;;4943801;28;20232;-72
2022/05/08 05:32:11;;;;;;;3.00;2.03;;;15.20;99.90;;;;;;4941757;29;20228;-72
2022/05/08 05:34:39;;;;;;;9.37;2.33;;;15.20;99.90;;;;;;4945769;29;20307;-72
2022/05/08 05:37:06;;;;;;;4.50;2.37;;;15.00;99.90;;;;;;4946553;29;20212;-72
2022/05/08 05:39:33;;;;;;;3.73;2.30;;;14.90;99.90;;;;;;4945020;28;20232;-72
2022/05/08 05:41:59;;;;;;;2.87;2.00;;;14.80;99.90;;;;;;4952075;29;20216;-72
2022/05/08 05:44:27;;;;;;;6.23;2.37;;;14.50;99.90;;;;;;4946583;28;20232;-72
2022/05/08 05:49:39;;;;;;;4.87;2.43;;;14.70;99.90;;;;;;4951411;28;20251;-72
2022/05/08 05:52:08;;;;;;;5.57;2.77;;;14.60;99.90;;;;;;4942965;29;20228;-72
2022/05/08 05:54:35;;;;;;;3.97;2.30;;;14.20;99.90;;;;;;4942793;28;20294;-71
2022/05/08 05:57:02;;;;;;;5.67;2.47;;;14.10;99.90;;;;;;4947884;28;20216;-71
2022/05/08 05:59:29;;;;;;;3.83;2.63;;;14.10;99.90;;;;;;4948659;28;20743;-72
2022/05/08 06:01:56;;;;;;;4.43;2.27;;;13.60;99.90;;;;;;4941923;29;20213;-71
2022/05/08 06:04:23;;;;;;;6.13;2.83;;;13.50;99.90;;;;;;4945909;28;20234;-72
2022/05/08 06:06:51;;;;;;;6.57;2.93;;;13.80;99.90;;;;;;4946032;28;20239;-71
2022/05/08 06:09:18;;;;;;;8.37;3.20;;;14.00;99.90;;;;;;4938631;29;20232;-72
2022/05/08 06:11:45;;;;;;;5.97;3.00;;;13.90;99.90;;;;;;4941098;28;20217;-72
2022/05/08 06:14:12;;;;;;;4.40;2.80;;;13.70;99.90;;;;;;4946856;29;20215;-72
2022/05/08 06:16:39;;;;;;;5.50;3.07;;;13.70;99.90;;;;;;4947308;28;20220;-72
2022/05/08 06:19:06;;;;;;;5.20;2.50;;;13.80;99.90;;;;;;4944713;29;20322;-72
2022/05/08 06:21:33;;;;;;;5.13;2.90;;;14.00;99.90;;;;;;4943944;28;20232;-72
2022/05/08 06:24:01;;;;;;;7.63;3.17;;;14.10;99.90;;;;;;4946684;29;20212;-72
2022/05/08 06:26:28;;;;;;;4.93;2.90;;;14.20;99.90;;;;;;4949391;29;20220;-72
2022/05/08 06:28:55;;;;;;;5.50;3.03;;;14.50;99.90;;;;;;4947747;28;20209;-72
2022/05/08 06:31:22;;;;;;;8.07;3.20;;;14.60;99.90;;;;;;4944898;28;20209;-72
2022/05/08 06:33:49;;;;;;;4.93;2.87;;;14.40;99.90;;;;;;4948644;29;20667;-72
2022/05/08 06:36:16;;;;;;;6.73;3.13;;;14.20;99.90;;;;;;4943658;28;20251;-72
2022/05/08 06:38:43;;;;;;;5.73;3.00;;;14.20;99.90;;;;;;4949805;29;20295;-72
2022/05/08 06:41:11;;;;;;;6.27;3.23;;;14.30;99.90;;;;;;4939977;28;20240;-72
2022/05/08 06:43:40;;;;;;;4.27;2.70;;;14.30;99.90;;;;;;4944861;28;20213;-72
2022/05/08 06:46:07;;;;;;;4.37;2.73;;;14.10;99.90;;;;;;4942305;29;20219;-72
2022/05/08 06:48:33;;;;;;;5.40;3.07;;;14.00;99.90;;;;;;4947089;29;20216;-72
2022/05/08 06:51:01;;;;;;;5.30;2.90;;;14.10;99.90;;;;;;4944535;28;20236;-71
2022/05/08 06:53:28;;;;;;;7.13;3.10;;;14.20;99.90;;;;;;4944415;28;20212;-71
2022/05/08 06:55:54;;;;;;;7.00;3.20;;;14.30;99.90;;;;;;4942181;28;20209;-71
2022/05/08 06:58:24;;;;;;;7.13;3.20;;;14.50;99.90;;;;;;4938044;29;20663;-72
2022/05/08 07:03:36;;;;;;;5.70;3.23;;;14.80;99.90;;;;;;4939152;29;20219;-72
2022/05/08 07:06:02;;;;;;;6.13;2.73;;;15.20;99.90;;;;;;4938289;29;20208;-71
2022/05/08 07:08:29;;;;;;;5.33;2.57;;;15.80;99.90;;;;;;4947303;29;20678;-72
2022/05/08 07:10:56;;;;;;;6.30;2.43;;;16.60;99.90;;;;;;4936654;28;20228;-72
2022/05/08 07:13:26;;;;;;;5.30;2.50;;;17.00;99.90;;;;;;4938294;28;20640;-72
2022/05/08 07:15:53;;;;;;;5.33;2.60;;;17.30;99.90;;;;;;4937149;28;20205;-72
2022/05/08 07:18:21;;;;;;;4.47;2.40;;;17.30;99.90;;;;;;4935180;29;20205;-72
2022/05/08 07:20:48;;;;;;;6.40;2.37;;;17.00;99.90;;;;;;4934490;29;20345;-72
2022/05/08 07:23:15;;;;;;;5.80;2.67;;;16.70;99.90;;;;;;4934244;29;20256;-72
2022/05/08 07:25:42;;;;;;;4.23;2.60;;;17.20;99.90;;;;;;4936120;29;20213;-72
2022/05/08 07:28:09;;;;;;;3.80;2.67;;;18.00;99.90;;;;;;4935832;29;20212;-72
2022/05/08 07:30:37;;;;;;;4.17;2.53;;;18.10;99.90;;;;;;4943055;29;20590;-71
2022/05/08 07:33:04;;;;;;;5.83;2.90;;;18.00;99.90;;;;;;4954663;28;20234;-71
2022/05/08 07:38:16;;;;;;;7.57;2.77;;;16.70;99.90;;;;;;4953376;29;20286;-71
2022/05/08 07:40:47;;;;;;;6.40;2.80;;;16.30;99.90;;;;;;4954593;28;20244;-71
2022/05/08 07:43:16;;;;;;;5.67;2.83;;;16.10;99.90;;;;;;4951877;28;20280;-72
2022/05/08 07:45:45;;;;;;;8.00;3.20;;;15.90;99.90;;;;;;4953390;28;20250;-72
2022/05/08 07:48:12;;;;;;;4.60;3.10;;;15.70;99.90;;;;;;4951097;28;20747;-72
2022/05/08 07:50:39;;;;;;;8.00;3.40;;;15.60;99.90;;;;;;4952912;28;20323;-72
2022/05/08 07:53:06;;;;;;;5.27;3.03;;;15.60;99.90;;;;;;4953361;28;20259;-72
2022/05/08 07:55:33;;;;;;;6.90;3.20;;;15.60;99.90;;;;;;4953179;28;20204;-72
2022/05/08 07:58:00;;;;;;;5.80;3.03;;;15.50;99.90;;;;;;4952833;28;20208;-71
2022/05/08 08:00:26;;;;;;;3.67;2.40;;;15.70;99.90;;;;;;4950598;28;20232;-72
2022/05/08 08:02:55;;;;;;;5.30;2.40;;;15.90;99.90;;;;;;4944903;29;20208;-71
2022/05/08 08:05:21;;;;;;;5.57;2.77;;;16.10;99.90;;;;;;4951898;28;20204;-72
2022/05/08 08:07:48;;;;;;;4.53;2.77;;;16.20;99.90;;;;;;4939601;28;20595;-72
2022/05/08 08:10:16;;;;;;;6.50;2.83;;;16.40;99.90;;;;;;4941127;29;20223;-72
2022/05/08 08:12:43;;;;;;;6.73;2.57;;;16.30;99.90;;;;;;4943110;29;20209;-72
2022/05/08 08:15:10;;;;;;;5.97;2.90;;;16.30;99.90;;;;;;4953502;28;20235;-72
2022/05/08 08:17:37;;;;;;;8.83;2.80;;;16.70;99.90;;;;;;4937296;28;20212;-72
2022/05/08 08:20:07;;;;;;;5.83;2.83;;;17.10;99.90;;;;;;4952575;28;20258;-72
2022/05/08 08:22:34;;;;;;;6.67;3.60;;;17.00;99.90;;;;;;4952645;28;20204;-72
2022/05/08 08:25:01;;;;;;;6.50;2.90;;;17.20;99.90;;;;;;4940242;29;20552;-72
2022/05/08 08:27:28;;;;;;;8.53;3.40;;;17.40;99.90;;;;;;4952586;29;20208;-72
2022/05/08 08:29:55;;;;;;;6.10;2.90;;;17.80;99.90;;;;;;4942139;29;20315;-72
2022/05/08 08:32:22;;;;;;;7.68;3.22;;;18.60;99.90;;;;;;4946723;29;20611;-72
2022/05/08 08:34:50;;;;;;;6.72;2.72;;;19.50;99.90;;;;;;4945392;28;20205;-72
2022/05/08 08:37:18;;;;;;;5.70;3.30;;;20.50;99.90;;;;;;4953182;29;20212;-72
2022/05/08 08:39:44;;;;;;;7.15;2.80;;;21.10;99.90;;;;;;4940791;28;20235;-72
2022/05/08 08:42:26;;;;;;;6.32;2.78;;;21.20;99.90;;;;;;4949537;28;20232;-72
2022/05/08 08:47:47;;;;;;;4.45;2.70;;;21.60;99.10;;;;;;4949736;29;20294;-72
2022/05/08 08:50:16;;;;;;;5.15;2.67;;;21.30;98.90;;;;;;4950130;28;20733;-72
2022/05/08 08:52:46;;;;;;;4.82;2.78;;;21.00;99.40;;;;;;4948651;29;20259;-72
2022/05/08 08:55:12;;;;;;;4.68;2.47;;;20.90;99.50;;;;;;4941651;28;20664;-73
2022/05/08 08:57:39;;;;;;;4.90;2.65;;;21.40;99.00;;;;;;4956093;29;20866;-72
2022/05/08 09:00:08;;;;;;;7.18;2.78;;;21.80;97.80;;;;;;4950547;28;20227;-72
2022/05/08 09:02:35;;;;;;;5.18;2.33;;;22.00;97.90;;;;;;4946220;29;20231;-72
2022/05/08 09:05:05;;;;;;;4.32;2.60;;;22.40;97.30;;;;;;4951932;28;20219;-72
2022/05/08 09:07:39;;;;;;;4.78;2.63;;;21.70;97.40;;;;;;4943701;28;20205;-73
2022/05/08 09:10:16;;;;;;;8.30;2.38;;;22.00;97.40;;;;;;4952850;28;20335;-73
2022/05/08 09:12:45;;;;;;;6.05;2.30;;;21.40;97.90;;;;;;4944057;28;20218;-72
2022/05/08 09:15:19;;;;;;;3.05;1.95;;;21.60;97.30;;;;;;4950104;29;20263;-72
2022/05/08 09:17:47;;;;;;;5.15;2.53;;;21.80;96.70;;;;;;4946622;28;20204;-71
2022/05/08 09:20:26;;;;;;;4.78;2.38;;;21.80;96.50;;;;;;4955380;28;20230;-71
2022/05/08 09:23:10;;;;;;;4.50;1.98;;;21.60;97.20;;;;;;4939832;29;20587;-71
2022/05/08 09:26:00;;;;;;;4.65;2.15;;;21.20;96.50;;;;;;4943625;29;20219;-72
2022/05/08 09:28:28;;;;;;;4.40;1.90;;;20.50;97.50;;;;;;4947447;29;20643;-72
2022/05/08 09:30:57;;;;;;;3.60;1.63;;;20.00;98.00;;;;;;4945862;29;20826;-71
2022/05/08 09:33:25;;;;;;;4.03;1.88;;;20.20;98.50;;;;;;4943279;29;20204;-71
2022/05/08 09:35:52;;;;;;;3.28;1.80;;;20.50;98.00;;;;;;4945949;28;20211;-71
2022/05/08 09:38:19;;;;;;;4.07;2.05;;;20.20;97.80;;;;;;4949163;29;20563;-71
2022/05/08 09:40:46;;;;;;;4.32;1.63;;;20.40;98.20;;;;;;4939756;28;20228;-70
2022/05/08 09:43:29;;;;;;;4.28;1.42;;;20.90;97.20;;;;;;4950864;28;20205;-71
2022/05/08 09:46:00;;;;;;;6.32;1.67;;;20.50;95.70;;;;;;4943628;28;20200;-71
2022/05/08 09:48:28;;;;;;;3.28;1.45;;;20.00;96.60;;;;;;4954941;28;20217;-71
2022/05/08 09:50:58;;;;;;;3.85;1.42;;;20.10;97.20;;;;;;4951587;28;20238;-71
2022/05/08 09:53:25;;;;;;;2.70;1.50;;;19.30;97.40;;;;;;4955554;28;20215;-71
2022/05/08 09:55:53;;;;;;;2.03;1.20;;;19.00;97.50;;;;;;4955931;28;20215;-71
2022/05/08 09:58:20;;;;;;;1.92;1.35;;;18.70;97.20;;;;;;4955360;28;20544;-71
2022/05/08 10:00:51;;;;;;;4.00;1.05;;;18.50;97.60;;;;;;4954301;28;20232;-71
2022/05/08 10:03:18;;;;;;;5.85;1.40;;;18.40;98.50;;;;;;4954764;28;20204;-71
2022/05/08 10:05:46;;;;;;;3.17;1.40;;;18.30;98.00;;;;;;4952825;28;20200;-71
2022/05/08 10:08:15;;;;;;;4.67;1.43;;;18.40;98.00;;;;;;4955446;28;20226;-71
2022/05/08 10:14:07;;;;;;;3.40;1.30;;;18.60;98.50;;;;;;4944851;28;20267;-72
2022/05/08 10:16:53;;;;;;;2.10;1.00;;;18.30;98.40;;;;;;4935553;29;20240;-72
2022/05/08 10:19:47;;;;;;;4.07;1.20;;;18.20;98.50;;;;;;4935812;29;20240;-71
2022/05/08 10:22:15;;;;;;;3.17;1.50;;;18.10;99.00;;;;;;4936335;29;20276;-72
2022/05/08 10:24:46;;;;;;;1.00;0.80;;;18.40;98.70;;;;;;4935515;29;20208;-72
2022/05/08 10:27:15;;;;;;;3.23;0.83;;;18.50;98.10;;;;;;4936395;29;20208;-72
2022/05/08 10:29:43;;;;;;;2.00;0.70;;;18.60;96.90;;;;;;4938623;29;20982;-72
2022/05/08 10:32:13;;;;;;;4.53;0.90;;;18.40;96.70;;;;;;4948315;28;20227;-72
2022/05/08 10:34:40;;;;;;;4.70;0.80;;;18.10;97.50;;;;;;4935895;29;20215;-71
2022/05/08 10:37:25;;;;;;;1.63;0.80;;;17.80;98.10;;;;;;4939031;29;20200;-71
2022/05/08 10:39:53;;;;;;;3.27;1.10;;;17.80;97.70;;;;;;4955053;28;20623;-72
2022/05/08 10:42:42;;;;;;;3.23;0.90;;;18.10;97.20;;;;;;4954780;28;20240;-71
2022/05/08 10:45:40;;;;;;;1.37;0.90;;;18.20;97.30;;;;;;4954846;29;20210;-71
2022/05/08 10:48:09;;;;;;;1.80;0.80;;;18.50;97.10;;;;;;4953243;28;20216;-71
2022/05/08 10:50:37;;;;;;;4.23;1.20;;;18.50;96.90;;;;;;4952604;29;20224;-71
2022/05/08 10:53:04;;;;;;;2.57;0.80;;;18.20;96.60;;;;;;4954535;28;20224;-72
2022/05/08 10:55:31;;;;;;;3.70;1.30;;;18.40;96.50;;;;;;4954253;28;20196;-71
2022/05/08 10:57:58;;;;;;;3.43;1.30;;;18.20;96.30;;;;;;4955260;28;20207;-72
2022/05/08 11:00:27;;;;;;;6.83;1.20;;;18.30;97.10;;;;;;4955407;28;20703;-72
2022/05/08 11:02:56;;;;;;;3.03;0.90;;;18.40;97.50;;;;;;4955156;28;20255;-72
2022/05/08 11:05:24;;;;;;;2.43;0.80;;;18.70;97.10;;;;;;4950906;28;20208;-71
2022/05/08 11:07:52;;;;;;;3.33;1.10;;;18.80;97.30;;;;;;4953845;29;20206;-71
2022/05/08 11:10:24;;;;;;;2.60;0.73;;;18.90;95.80;;;;;;4955229;28;20250;-71
2022/05/08 11:12:59;;;;;;;0.60;0.40;;;18.70;94.60;;;;;;4953698;28;20212;-73
2022/05/08 11:15:27;;;;;;;1.07;0.60;;;18.80;94.80;;;;;;4954161;28;20345;-70
2022/05/08 11:18:08;;;;;;;1.57;0.80;;;18.70;94.70;;;;;;4955199;28;20208;-70
2022/05/08 11:20:37;;;;;;;1.98;0.82;;;18.80;94.70;;;;;;4955290;28;20250;-70
2022/05/08 11:23:05;;;;;;;1.13;0.80;;;19.00;95.10;;;;;;4951939;28;20240;-71
2022/05/08 11:25:32;;;;;;;2.13;0.80;;;18.90;94.30;;;;;;4935590;29;20213;-70
2022/05/08 11:27:59;;;;;;;1.80;0.80;;;19.00;95.30;;;;;;4936051;29;20208;-71
2022/05/08 11:30:30;;;;;;;1.95;0.80;;;19.00;93.90;;;;;;4935737;29;20236;-71
2022/05/08 11:36:07;;;;;;;2.83;0.98;;;18.90;94.20;;;;;;4935898;29;20204;-70
2022/05/08 11:38:44;;;;;;;1.45;0.57;;;18.90;93.20;;;;;;4935459;29;20220;-70
2022/05/08 11:41:12;;;;;;;2.40;0.82;;;19.00;92.80;;;;;;4935474;29;20210;-71
2022/05/08 11:43:44;;;;;;;2.30;0.60;;;19.00;92.30;;;;;;4935643;29;20242;-70
2022/05/08 11:46:15;;;;;;;2.10;0.93;;;19.00;92.30;;;;;;4935912;29;20212;-71
2022/05/08 11:48:42;;;;;;;2.97;0.80;;;19.00;92.90;;;;;;4938583;29;20201;-71
2022/05/08 11:51:11;;;;;;;2.50;0.67;;;18.60;92.80;;;;;;4948703;29;20203;-71
2022/05/08 11:53:46;;;;;;;1.63;0.70;;;18.60;93.30;;;;;;4954151;28;20220;-71
2022/05/08 11:56:27;;;;;;;1.70;0.70;;;18.60;93.10;;;;;;4954467;28;20295;-71
2022/05/08 11:58:55;;;;;;;1.60;0.50;;;18.60;92.60;;;;;;4954360;28;20651;-71
2022/05/08 12:01:27;;;;;;;0.73;0.60;;;18.80;91.40;;;;;;4954313;28;20218;-71
2022/05/08 12:03:54;;;;;;;3.40;0.80;;;18.90;92.20;;;;;;4954162;28;20560;-70
2022/05/08 12:06:22;;;;;;;1.43;0.50;;;19.00;91.50;;;;;;4952585;28;20782;-71
2022/05/08 12:08:49;;;;;;;1.13;0.50;;;19.10;90.60;;;;;;4935325;29;20211;-71
2022/05/08 12:11:35;;;;;;;1.50;0.60;;;19.00;91.00;;;;;;4935446;29;20683;-71
2022/05/08 12:14:03;;;;;;;3.77;0.70;;;18.90;91.20;;;;;;4935058;29;20541;-71
2022/05/08 12:16:31;;;;;;;1.33;0.50;;;18.80;91.40;;;;;;4935775;29;20212;-72
2022/05/08 12:19:15;;;;;;;2.47;0.90;;;18.90;92.30;;;;;;4954317;28;20322;-71
2022/05/08 12:21:44;;;;;;;3.72;0.80;;;19.10;91.70;;;;;;4954346;28;20224;-71
2022/05/08 12:24:13;;;;;;;2.20;0.50;;;19.00;92.00;;;;;;4950762;28;20205;-71
2022/05/08 12:26:40;;;;;;;2.90;0.98;;;19.20;91.60;;;;;;4935180;29;20208;-71
2022/05/08 12:29:08;;;;;;;1.77;0.60;;;19.30;89.40;;;;;;4940718;29;20234;-71
2022/05/08 12:31:36;;;;;;;3.90;0.88;;;19.30;90.50;;;;;;4954263;28;20212;-71
2022/05/08 12:34:05;;;;;;;1.25;0.63;;;19.40;89.20;;;;;;4952249;28;20218;-71
2022/05/08 12:36:33;;;;;;;1.73;0.55;;;19.40;90.10;;;;;;4954055;28;20675;-71
2022/05/08 12:39:01;;;;;;;3.75;0.77;;;19.20;89.40;;;;;;4953360;28;20236;-71
2022/05/08 12:41:27;;;;;;;2.17;0.60;;;19.10;90.30;;;;;;4940097;29;20204;-71
2022/05/08 12:43:55;;;;;;;0.80;0.50;;;19.20;89.70;;;;;;4954132;28;20204;-71
2022/05/08 12:46:21;;;;;;;2.05;0.63;;;19.30;89.90;;;;;;4952247;28;20249;-71
2022/05/08 12:48:49;;;;;;;1.92;0.68;;;19.30;88.90;;;;;;4949719;28;20197;-71
2022/05/08 12:51:15;;;;;;;3.20;0.70;;;19.20;89.50;;;;;;4952794;28;20541;-71
2022/05/08 12:53:42;;;;;;;1.30;0.60;;;19.20;90.60;;;;;;4954180;28;20246;-71
2022/05/08 12:56:11;;;;;;;2.45;0.77;;;19.50;89.90;;;;;;4951872;28;20208;-71
2022/05/08 13:01:22;;;;;;;3.10;0.93;;;19.80;89.80;;;;;;4953533;29;20220;-71
2022/05/08 13:03:49;;;;;;;0.85;0.47;;;19.90;89.70;;;;;;4952496;28;20232;-71
2022/05/08 13:06:16;;;;;;;2.15;0.50;;;20.00;87.80;;;;;;4941329;28;20260;-71
2022/05/08 13:08:43;;;;;;;4.60;0.68;;;19.90;88.90;;;;;;4950171;29;20215;-72
2022/05/08 13:11:11;;;;;;;0.93;0.50;;;19.90;88.70;;;;;;4953303;28;20205;-71
2022/05/08 13:13:38;;;;;;;2.75;0.50;;;20.10;86.60;;;;;;4956486;28;20548;-71
2022/05/08 13:16:05;;;;;;;0.50;0.32;;;19.90;88.00;;;;;;4956434;28;20208;-71
2022/05/08 13:18:33;;;;;;;1.45;0.40;;;19.70;88.00;;;;;;4956522;28;20212;-72
2022/05/08 13:21:00;;;;;;;2.92;0.43;;;19.50;88.90;;;;;;4957491;28;20697;-71
2022/05/08 13:23:26;;;;;;;1.00;0.43;;;19.60;87.00;;;;;;4949606;28;20236;-72